Time;durP1;ratioP1;P1;durP2;ratioP2;P2;SDS_P1;SDS_P2;PMS_P1;PMS_P2;Temp;Humidity;BMP_temperature;BMP_pressure;BME280_temperature;BME280_humidity;BME280_pressure;Samples;Min_cycle;Max_cycle;Signal;HPM_P1;HPM_P2
2022/07/12 00:02:15;;;;;;;5.82;4.20;;;15.60;99.90;;;;;;5036162;28;20136;-67
2022/07/12 00:04:41;;;;;;;4.57;3.70;;;15.50;99.90;;;;;;5049219;28;20139;-67
2022/07/12 00:07:07;;;;;;;6.28;3.70;;;15.60;99.90;;;;;;5066093;28;20136;-67
2022/07/12 00:09:33;;;;;;;4.70;4.20;;;15.60;99.90;;;;;;5039411;28;20044;-67
2022/07/12 00:11:59;;;;;;;7.38;4.80;;;15.60;99.90;;;;;;5069896;28;20394;-67
2022/07/12 00:14:25;;;;;;;6.53;4.65;;;15.50;99.90;;;;;;5068728;28;20040;-66
2022/07/12 00:16:51;;;;;;;6.68;5.63;;;15.50;99.90;;;;;;5069494;28;20092;-67
2022/07/12 00:19:18;;;;;;;8.80;5.38;;;15.60;99.90;;;;;;5065117;28;20388;-67
2022/07/12 00:21:43;;;;;;;12.32;5.25;;;15.50;99.90;;;;;;5067695;28;20043;-67
2022/07/12 00:24:10;;;;;;;8.23;5.50;;;15.50;99.90;;;;;;5064537;28;20045;-67
2022/07/12 00:26:36;;;;;;;6.28;5.38;;;15.60;99.90;;;;;;5055215;28;20516;-67
2022/07/12 00:29:02;;;;;;;8.40;5.65;;;15.60;99.90;;;;;;5067705;28;20036;-67
2022/07/12 00:31:31;;;;;;;5.30;4.10;;;15.50;99.90;;;;;;5066496;28;20082;-68
2022/07/12 00:33:56;;;;;;;7.22;4.97;;;15.50;99.90;;;;;;5057041;28;20048;-66
2022/07/12 00:36:22;;;;;;;5.82;4.53;;;15.50;99.90;;;;;;5070354;28;20036;-66
2022/07/12 00:38:47;;;;;;;5.53;4.60;;;15.50;99.90;;;;;;5070392;28;20093;-67
2022/07/12 00:41:13;;;;;;;7.47;5.47;;;15.50;99.90;;;;;;5068813;28;20056;-67
2022/07/12 00:43:39;;;;;;;6.25;4.85;;;15.50;99.90;;;;;;5037809;28;20049;-66
2022/07/12 00:46:05;;;;;;;5.68;4.43;;;15.50;99.90;;;;;;5067866;28;20549;-66
2022/07/12 00:48:38;;;;;;;7.05;4.43;;;15.50;99.90;;;;;;5061620;28;20041;-65
2022/07/12 00:51:04;;;;;;;5.75;4.43;;;15.50;99.90;;;;;;5041876;28;20040;-67
2022/07/12 00:53:30;;;;;;;5.35;4.30;;;15.50;99.90;;;;;;5066937;28;20041;-67
2022/07/12 00:55:59;;;;;;;6.57;3.97;;;15.50;99.90;;;;;;5054767;28;20051;-66
2022/07/12 00:58:26;;;;;;;5.57;3.83;;;15.50;99.90;;;;;;5063054;28;21937;-67
2022/07/12 01:00:54;;;;;;;5.00;4.05;;;15.50;99.90;;;;;;5068191;28;20040;-66
2022/07/12 01:03:21;;;;;;;5.93;5.00;;;15.50;99.90;;;;;;5064920;28;20048;-68
2022/07/12 01:05:47;;;;;;;5.47;4.40;;;15.50;99.90;;;;;;5068669;28;20057;-68
2022/07/12 01:08:14;;;;;;;5.28;4.20;;;15.50;99.90;;;;;;5067079;28;20131;-66
2022/07/12 01:10:42;;;;;;;4.93;4.43;;;15.50;99.90;;;;;;5059921;28;20063;-66
2022/07/12 01:13:08;;;;;;;5.20;4.22;;;15.50;99.90;;;;;;5062674;28;20044;-67
2022/07/12 01:15:35;;;;;;;5.25;4.25;;;15.50;99.90;;;;;;5062128;28;20101;-66
2022/07/12 01:18:01;;;;;;;6.25;4.07;;;15.60;99.90;;;;;;5050755;28;20045;-66
2022/07/12 01:20:28;;;;;;;7.97;4.53;;;15.50;99.90;;;;;;5040011;28;20048;-65
2022/07/12 01:22:55;;;;;;;6.43;4.32;;;15.50;99.90;;;;;;5060476;28;20056;-67
2022/07/12 01:25:20;;;;;;;5.07;4.13;;;15.50;99.90;;;;;;5065225;28;20040;-67
2022/07/12 01:27:49;;;;;;;7.55;4.65;;;15.50;99.90;;;;;;5054144;28;20037;-66
2022/07/12 01:30:15;;;;;;;7.63;4.82;;;15.50;99.90;;;;;;5065972;28;20041;-66
2022/07/12 01:32:41;;;;;;;5.13;4.25;;;15.20;99.90;;;;;;5061919;28;20059;-66
2022/07/12 01:35:07;;;;;;;5.13;3.95;;;15.50;99.90;;;;;;5069210;28;20048;-67
2022/07/12 01:37:38;;;;;;;7.50;4.25;;;15.50;99.90;;;;;;5062588;28;20135;-67
2022/07/12 01:40:06;;;;;;;5.82;4.70;;;15.50;99.90;;;;;;5060745;28;20041;-67
2022/07/12 01:42:32;;;;;;;5.50;4.53;;;15.40;99.90;;;;;;5066290;28;20040;-66
2022/07/12 01:44:58;;;;;;;6.03;4.57;;;15.40;99.90;;;;;;5067976;28;20616;-68
2022/07/12 01:47:26;;;;;;;7.43;3.88;;;15.40;99.90;;;;;;5066320;28;20059;-67
2022/07/12 01:49:52;;;;;;;4.72;3.60;;;15.40;99.90;;;;;;5064505;28;20049;-66
2022/07/12 01:52:19;;;;;;;5.07;4.05;;;15.40;99.90;;;;;;5063625;28;20040;-67
2022/07/12 01:54:45;;;;;;;4.43;3.83;;;15.40;99.90;;;;;;5059674;28;21791;-65
2022/07/12 01:57:14;;;;;;;5.25;3.65;;;15.40;99.90;;;;;;5059142;28;20190;-67
2022/07/12 01:59:41;;;;;;;6.82;4.28;;;15.40;99.90;;;;;;5078129;28;20398;-69
2022/07/12 02:02:07;;;;;;;6.10;4.10;;;15.40;99.90;;;;;;5055991;28;20043;-67
2022/07/12 02:04:33;;;;;;;5.40;4.07;;;15.40;99.90;;;;;;5069312;28;20036;-66
2022/07/12 02:07:00;;;;;;;5.25;3.90;;;15.40;99.90;;;;;;5069674;28;20057;-66
2022/07/12 02:09:26;;;;;;;7.17;5.00;;;15.40;99.90;;;;;;5060483;28;20071;-67
2022/07/12 02:11:53;;;;;;;5.53;4.43;;;15.40;99.90;;;;;;5045427;28;20131;-67
2022/07/12 02:14:19;;;;;;;6.93;4.22;;;15.40;99.90;;;;;;5056887;28;20164;-67
2022/07/12 02:16:45;;;;;;;4.53;3.90;;;15.40;99.90;;;;;;5066594;28;20041;-67
2022/07/12 02:19:12;;;;;;;5.80;4.40;;;15.40;99.90;;;;;;5060098;28;20072;-68
2022/07/12 02:21:37;;;;;;;4.95;3.88;;;15.50;99.90;;;;;;5064736;28;20053;-66
2022/07/12 02:24:04;;;;;;;6.10;4.20;;;15.40;99.90;;;;;;5066989;28;20041;-66
2022/07/12 02:26:30;;;;;;;7.50;4.68;;;15.40;99.90;;;;;;5067765;28;20033;-67
2022/07/12 02:28:56;;;;;;;8.05;4.20;;;15.40;99.90;;;;;;5068326;28;20402;-66
2022/07/12 02:31:21;;;;;;;5.20;4.32;;;15.40;99.90;;;;;;5061796;28;20048;-66
2022/07/12 02:33:47;;;;;;;5.38;4.35;;;15.40;99.90;;;;;;5061687;28;20044;-67
2022/07/12 02:36:13;;;;;;;6.85;4.78;;;15.40;99.90;;;;;;5073437;28;20037;-67
2022/07/12 02:38:38;;;;;;;6.07;4.82;;;15.40;99.90;;;;;;5066912;28;20028;-67
2022/07/12 02:41:04;;;;;;;7.30;4.40;;;15.40;99.90;;;;;;5065204;28;20452;-66
2022/07/12 02:43:31;;;;;;;4.90;4.25;;;15.40;99.90;;;;;;5072710;28;20479;-67
2022/07/12 02:46:05;;;;;;;6.53;5.00;;;15.30;99.90;;;;;;5066781;28;20122;-67
2022/07/12 02:48:31;;;;;;;7.07;5.13;;;15.30;99.90;;;;;;5066216;28;20425;-67
2022/07/12 02:50:56;;;;;;;6.60;4.75;;;15.30;99.90;;;;;;5062920;28;20074;-66
2022/07/12 02:53:22;;;;;;;6.10;5.10;;;15.30;99.90;;;;;;5071147;28;20036;-68
2022/07/12 02:55:48;;;;;;;5.32;4.78;;;15.30;99.90;;;;;;5070986;28;20072;-67
2022/07/12 02:58:14;;;;;;;6.50;5.05;;;15.30;99.90;;;;;;5059480;28;20080;-67
2022/07/12 03:00:41;;;;;;;6.32;5.40;;;15.30;99.90;;;;;;5070971;28;20140;-67
2022/07/12 03:03:07;;;;;;;8.55;5.50;;;15.30;99.90;;;;;;5065799;28;20041;-66
2022/07/12 03:05:36;;;;;;;6.03;4.80;;;15.30;99.90;;;;;;5065406;28;20491;-66
2022/07/12 03:08:03;;;;;;;7.05;5.07;;;15.30;99.90;;;;;;5066971;28;20159;-67
2022/07/12 03:10:29;;;;;;;7.88;5.50;;;15.30;99.90;;;;;;5064894;28;20084;-68
2022/07/12 03:12:55;;;;;;;7.65;5.82;;;15.30;99.90;;;;;;5067147;28;20497;-67
2022/07/12 03:15:20;;;;;;;5.35;4.53;;;15.30;99.90;;;;;;5058341;28;20173;-68
2022/07/12 03:17:46;;;;;;;7.60;5.80;;;15.30;99.90;;;;;;5059224;28;20128;-67
2022/07/12 03:20:14;;;;;;;7.10;5.05;;;15.30;99.90;;;;;;5069967;28;20041;-67
2022/07/12 03:22:41;;;;;;;6.68;5.00;;;15.30;99.90;;;;;;5058634;28;20052;-66
2022/07/12 03:25:09;;;;;;;6.93;5.72;;;15.20;99.90;;;;;;5055386;28;20079;-66
2022/07/12 03:27:35;;;;;;;7.30;6.30;;;15.30;99.90;;;;;;5061395;28;20203;-66
2022/07/12 03:30:01;;;;;;;8.02;6.05;;;15.20;99.90;;;;;;5066694;28;20462;-66
2022/07/12 03:32:27;;;;;;;8.93;6.45;;;15.20;99.90;;;;;;5068910;28;20652;-67
2022/07/12 03:34:52;;;;;;;9.32;5.93;;;15.20;99.90;;;;;;5069261;28;20575;-68
2022/07/12 03:37:18;;;;;;;8.05;6.65;;;15.20;99.90;;;;;;5069857;28;20044;-67
2022/07/12 03:39:44;;;;;;;8.70;6.07;;;15.20;99.90;;;;;;5066696;28;20041;-68
2022/07/12 03:42:12;;;;;;;7.50;6.03;;;15.20;99.90;;;;;;5062879;28;20131;-66
2022/07/12 03:44:38;;;;;;;8.43;6.85;;;15.20;99.90;;;;;;5053218;28;20041;-67
2022/07/12 03:47:04;;;;;;;8.02;6.65;;;15.20;99.90;;;;;;5065519;28;20032;-68
2022/07/12 03:49:29;;;;;;;7.50;6.60;;;15.30;99.90;;;;;;5072245;28;20036;-68
2022/07/12 03:51:55;;;;;;;7.13;6.38;;;15.20;99.90;;;;;;5062755;28;20106;-66
2022/07/12 03:54:21;;;;;;;8.60;6.72;;;15.20;99.90;;;;;;5068864;28;20037;-66
2022/07/12 03:59:31;;;;;;;8.05;6.82;;;15.20;99.90;;;;;;5063538;28;20052;-67
2022/07/12 04:01:56;;;;;;;8.63;7.00;;;15.30;99.90;;;;;;5063588;28;20033;-68
2022/07/12 04:04:22;;;;;;;8.93;7.57;;;15.30;99.90;;;;;;5067987;28;20119;-67
2022/07/12 04:06:48;;;;;;;9.60;7.47;;;15.30;99.90;;;;;;5068376;28;20136;-67
2022/07/12 04:09:14;;;;;;;9.70;7.45;;;15.30;99.90;;;;;;5060209;28;20127;-67
2022/07/12 04:11:42;;;;;;;7.68;6.72;;;15.30;99.90;;;;;;5062980;28;20130;-68
2022/07/12 04:14:08;;;;;;;9.85;8.40;;;15.30;99.90;;;;;;5057043;28;20128;-68
2022/07/12 04:16:34;;;;;;;8.25;6.95;;;15.30;99.90;;;;;;5064264;28;20127;-67
2022/07/12 04:19:05;;;;;;;8.15;6.38;;;15.30;99.90;;;;;;5063342;28;20044;-67
2022/07/12 04:21:32;;;;;;;12.82;7.88;;;15.30;99.90;;;;;;5066617;28;20094;-66
2022/07/12 04:23:57;;;;;;;11.77;8.13;;;15.30;99.90;;;;;;5061492;28;20052;-66
2022/07/12 04:26:23;;;;;;;10.77;7.82;;;15.30;99.90;;;;;;5060220;28;20044;-66
2022/07/12 04:28:49;;;;;;;10.85;8.55;;;15.30;99.90;;;;;;5079185;28;20045;-67
2022/07/12 04:31:15;;;;;;;11.45;8.55;;;15.30;99.90;;;;;;5059637;28;20478;-66
2022/07/12 04:33:40;;;;;;;11.20;8.45;;;15.30;99.90;;;;;;5067548;28;20088;-66
2022/07/12 04:36:06;;;;;;;11.45;8.93;;;15.30;99.90;;;;;;5060073;28;20123;-67
2022/07/12 04:38:32;;;;;;;10.68;8.93;;;15.30;99.90;;;;;;5052765;28;20040;-67
2022/07/12 04:40:58;;;;;;;11.38;9.25;;;15.30;99.90;;;;;;5060478;28;20162;-68
2022/07/12 04:43:24;;;;;;;13.98;9.52;;;15.30;99.90;;;;;;5055788;28;20491;-69
2022/07/12 04:45:50;;;;;;;14.32;9.60;;;15.40;99.90;;;;;;5061258;28;20049;-66
2022/07/12 04:48:16;;;;;;;14.38;9.73;;;15.40;99.90;;;;;;5055672;28;20110;-66
2022/07/12 04:50:42;;;;;;;20.13;10.80;;;15.40;99.90;;;;;;5054333;28;20041;-66
2022/07/12 04:53:08;;;;;;;14.38;10.18;;;15.40;99.90;;;;;;5066263;28;20044;-67
2022/07/12 04:55:34;;;;;;;14.57;8.95;;;15.40;99.90;;;;;;5061279;28;20045;-66
2022/07/12 04:58:00;;;;;;;12.20;8.52;;;15.30;99.90;;;;;;5070303;28;20417;-67
2022/07/12 05:00:26;;;;;;;11.05;7.55;;;15.30;99.90;;;;;;5066563;28;20060;-68
2022/07/12 05:02:51;;;;;;;9.52;7.55;;;15.30;99.90;;;;;;5061909;28;20049;-66
2022/07/12 05:05:17;;;;;;;9.18;6.70;;;15.20;99.90;;;;;;5067335;28;20111;-67
2022/07/12 05:07:44;;;;;;;9.52;6.45;;;15.20;99.90;;;;;;5065684;28;20037;-66
2022/07/12 05:10:11;;;;;;;10.35;7.13;;;15.20;99.90;;;;;;5064040;28;20105;-67
2022/07/12 05:12:37;;;;;;;12.67;8.03;;;15.20;99.90;;;;;;5066999;28;20123;-66
2022/07/12 05:15:04;;;;;;;10.63;7.25;;;15.20;99.90;;;;;;5056916;28;20133;-67
2022/07/12 05:17:30;;;;;;;11.93;8.07;;;15.30;99.90;;;;;;5065557;28;20410;-67
2022/07/12 05:19:56;;;;;;;11.00;7.22;;;15.30;99.90;;;;;;5066356;28;20048;-67
2022/07/12 05:22:22;;;;;;;11.07;7.82;;;15.30;99.90;;;;;;5055415;28;20044;-66
2022/07/12 05:24:48;;;;;;;12.98;7.70;;;15.40;99.90;;;;;;5062344;28;20052;-66
2022/07/12 05:27:14;;;;;;;11.07;7.55;;;15.40;99.90;;;;;;5062144;28;20483;-65
2022/07/12 05:29:40;;;;;;;9.30;6.38;;;15.40;99.90;;;;;;5065476;28;20029;-67
2022/07/12 05:32:06;;;;;;;9.45;6.80;;;15.50;99.90;;;;;;5064944;28;20428;-67
2022/07/12 05:34:32;;;;;;;9.52;6.85;;;15.50;99.90;;;;;;5070481;28;20447;-67
2022/07/12 05:36:58;;;;;;;9.35;6.70;;;15.50;99.90;;;;;;5057431;28;20045;-67
2022/07/12 05:39:24;;;;;;;9.35;7.03;;;15.60;99.90;;;;;;5055351;28;20048;-66
2022/07/12 05:41:50;;;;;;;10.90;7.03;;;15.60;99.90;;;;;;5068701;28;20043;-67
2022/07/12 05:44:17;;;;;;;10.43;6.97;;;15.60;99.90;;;;;;5066636;28;20094;-67
2022/07/12 05:46:43;;;;;;;12.32;7.80;;;15.70;99.90;;;;;;5057210;28;20070;-67
2022/07/12 05:49:08;;;;;;;8.63;6.60;;;15.80;99.90;;;;;;5058047;28;20540;-67
2022/07/12 05:54:18;;;;;;;10.13;6.82;;;15.90;99.90;;;;;;5056919;28;20045;-67
2022/07/12 05:56:44;;;;;;;8.18;6.00;;;15.90;99.90;;;;;;5072168;28;20098;-68
2022/07/12 05:59:09;;;;;;;6.22;5.05;;;16.00;99.90;;;;;;5074269;28;20094;-66
2022/07/12 06:01:35;;;;;;;6.53;5.03;;;16.00;99.90;;;;;;5071285;28;20032;-65
2022/07/12 06:04:01;;;;;;;5.30;4.70;;;16.10;99.90;;;;;;5062299;28;20047;-67
2022/07/12 06:06:27;;;;;;;5.80;4.22;;;16.10;99.90;;;;;;5067393;28;20048;-67
2022/07/12 06:08:52;;;;;;;6.57;4.78;;;16.20;99.90;;;;;;5072279;28;20110;-67
2022/07/12 06:11:19;;;;;;;6.55;4.82;;;16.20;99.90;;;;;;5072166;28;20032;-68
2022/07/12 06:13:44;;;;;;;6.40;4.82;;;16.30;99.90;;;;;;5066009;28;20033;-66
2022/07/12 06:16:11;;;;;;;7.20;5.47;;;16.30;99.90;;;;;;5065601;28;20095;-66
2022/07/12 06:18:37;;;;;;;6.00;5.07;;;16.30;99.90;;;;;;5062906;28;20048;-67
2022/07/12 06:21:03;;;;;;;6.07;5.10;;;16.40;99.90;;;;;;5062036;28;20080;-69
2022/07/12 06:23:29;;;;;;;6.90;5.50;;;16.40;99.90;;;;;;5071521;28;20080;-66
2022/07/12 06:25:55;;;;;;;6.35;5.10;;;16.40;99.90;;;;;;5064031;28;20059;-68
2022/07/12 06:28:21;;;;;;;6.10;5.03;;;16.50;99.90;;;;;;5067683;28;20406;-67
2022/07/12 06:30:47;;;;;;;8.27;5.10;;;16.50;99.90;;;;;;5067054;28;20044;-67
2022/07/12 06:33:12;;;;;;;7.10;5.15;;;16.60;99.90;;;;;;5072528;28;20032;-67
2022/07/12 06:35:38;;;;;;;7.93;4.88;;;16.70;99.90;;;;;;5058694;28;20194;-65
2022/07/12 06:38:07;;;;;;;5.38;4.25;;;16.70;99.90;;;;;;5057693;28;20052;-67
2022/07/12 06:40:32;;;;;;;5.00;4.13;;;16.80;99.90;;;;;;5055256;28;20045;-67
2022/07/12 06:42:58;;;;;;;5.28;4.18;;;16.90;99.90;;;;;;5069358;28;20045;-66
2022/07/12 06:45:24;;;;;;;4.72;4.20;;;17.00;99.90;;;;;;5054227;28;20399;-67
2022/07/12 06:47:51;;;;;;;5.28;4.32;;;17.10;99.90;;;;;;5060509;28;20056;-66
2022/07/12 06:50:17;;;;;;;5.90;4.88;;;17.20;99.90;;;;;;5066171;28;20116;-66
2022/07/12 06:52:43;;;;;;;6.18;4.43;;;17.30;99.90;;;;;;5057281;28;20060;-66
2022/07/12 06:55:09;;;;;;;6.00;4.07;;;17.30;99.90;;;;;;5067474;28;20036;-67
2022/07/12 06:57:34;;;;;;;7.13;4.50;;;17.40;99.90;;;;;;5064936;28;20041;-67
2022/07/12 07:00:01;;;;;;;7.50;4.10;;;17.50;99.90;;;;;;5062752;28;20098;-67
2022/07/12 07:02:27;;;;;;;4.95;4.07;;;17.50;99.90;;;;;;5066150;28;20099;-68
2022/07/12 07:04:53;;;;;;;5.85;3.72;;;17.70;99.90;;;;;;5071460;28;20080;-66
2022/07/12 07:07:18;;;;;;;5.10;3.50;;;17.80;99.90;;;;;;5070761;28;20040;-68
2022/07/12 07:09:44;;;;;;;6.20;3.92;;;17.80;99.90;;;;;;5061203;28;20037;-67
2022/07/12 07:12:10;;;;;;;4.45;3.75;;;17.90;99.90;;;;;;5057867;28;20037;-67
2022/07/12 07:14:36;;;;;;;4.60;3.75;;;18.00;99.90;;;;;;5057302;28;20080;-67
2022/07/12 07:17:02;;;;;;;5.07;3.45;;;18.20;99.90;;;;;;5055510;28;20040;-67
2022/07/12 07:19:27;;;;;;;6.53;3.60;;;18.30;99.90;;;;;;5063128;28;20044;-68
2022/07/12 07:21:58;;;;;;;5.18;3.65;;;18.50;99.90;;;;;;5071469;28;20098;-67
2022/07/12 07:24:40;;;;;;;4.45;3.47;;;18.70;99.90;;;;;;5063974;28;20044;-66
2022/07/12 07:27:08;;;;;;;6.38;3.70;;;18.90;99.90;;;;;;5073510;28;20036;-66
2022/07/12 07:32:19;;;;;;;5.30;3.63;;;19.30;99.90;;;;;;5064922;28;20048;-67
2022/07/12 07:34:45;;;;;;;3.50;2.90;;;19.50;99.90;;;;;;5070542;28;20036;-66
2022/07/12 07:37:11;;;;;;;3.30;2.70;;;19.70;99.90;;;;;;5072174;28;20094;-66
2022/07/12 07:39:36;;;;;;;5.18;3.10;;;20.00;99.90;;;;;;5073276;28;20032;-66
2022/07/12 07:42:02;;;;;;;5.75;3.05;;;20.10;99.90;;;;;;5068250;28;20399;-67
2022/07/12 07:44:28;;;;;;;5.43;2.92;;;20.30;99.90;;;;;;5053452;28;20436;-68
2022/07/12 07:46:54;;;;;;;3.70;2.75;;;20.50;99.90;;;;;;5066402;28;20115;-66
2022/07/12 07:49:19;;;;;;;3.40;2.70;;;20.60;99.90;;;;;;5072529;28;20032;-67
2022/07/12 07:51:45;;;;;;;3.53;2.72;;;20.70;99.90;;;;;;5070023;28;20394;-68
2022/07/12 07:54:11;;;;;;;3.92;2.83;;;20.80;99.90;;;;;;5059015;28;20033;-67
2022/07/12 07:56:36;;;;;;;6.05;2.72;;;21.00;99.90;;;;;;5066924;28;20036;-67
2022/07/12 07:59:02;;;;;;;3.63;2.75;;;21.00;99.90;;;;;;5072204;28;20531;-67
2022/07/12 08:01:44;;;;;;;3.40;2.40;;;21.10;99.90;;;;;;5071620;28;20479;-67
2022/07/12 08:04:17;;;;;;;3.03;2.38;;;21.20;99.90;;;;;;5066641;28;20140;-67
2022/07/12 08:06:43;;;;;;;2.63;1.98;;;21.40;99.90;;;;;;5047869;28;20073;-67
2022/07/12 08:09:09;;;;;;;3.10;2.08;;;21.50;99.90;;;;;;5064704;28;20063;-67
2022/07/12 08:11:38;;;;;;;4.88;2.10;;;21.60;99.90;;;;;;5069560;28;20122;-66
2022/07/12 08:14:05;;;;;;;3.08;2.22;;;21.80;99.90;;;;;;5053590;28;20128;-67
2022/07/12 08:16:32;;;;;;;2.90;2.22;;;21.90;99.90;;;;;;5064087;28;20044;-66
2022/07/12 08:18:58;;;;;;;2.92;2.17;;;22.10;99.90;;;;;;5060915;28;20037;-68
2022/07/12 08:21:24;;;;;;;5.22;2.53;;;22.20;99.90;;;;;;5067585;28;20123;-68
2022/07/12 08:23:50;;;;;;;2.67;2.00;;;22.20;99.90;;;;;;5058079;28;20049;-67
2022/07/12 08:26:16;;;;;;;2.45;2.00;;;22.20;99.90;;;;;;5068152;28;20147;-67
2022/07/12 08:28:42;;;;;;;4.60;2.20;;;22.30;99.90;;;;;;5071120;28;20039;-67
2022/07/12 08:31:08;;;;;;;2.70;2.05;;;22.30;99.90;;;;;;5060658;28;20459;-67
2022/07/12 08:33:37;;;;;;;2.70;2.17;;;22.30;99.90;;;;;;5068349;28;20501;-67
2022/07/12 08:36:03;;;;;;;4.95;2.70;;;22.30;99.90;;;;;;5037399;28;20080;-67
2022/07/12 08:38:30;;;;;;;7.30;2.50;;;22.20;99.90;;;;;;5069142;28;20075;-68
2022/07/12 08:40:56;;;;;;;8.02;3.10;;;22.30;99.90;;;;;;5072001;28;20542;-67
2022/07/12 08:43:22;;;;;;;4.63;2.40;;;22.30;99.90;;;;;;5067445;28;20124;-66
2022/07/12 08:45:47;;;;;;;3.95;2.42;;;22.30;99.90;;;;;;5068672;28;20044;-67
2022/07/12 08:48:13;;;;;;;4.40;2.35;;;22.30;99.90;;;;;;5070161;28;20107;-67
2022/07/12 08:50:39;;;;;;;5.18;2.50;;;22.30;99.90;;;;;;5056199;28;20036;-67
2022/07/12 08:53:10;;;;;;;6.85;2.25;;;22.30;99.90;;;;;;5057521;28;20043;-68
2022/07/12 08:55:37;;;;;;;2.53;2.10;;;22.40;99.90;;;;;;5070018;28;20051;-66
2022/07/12 08:58:07;;;;;;;5.07;2.00;;;22.40;99.90;;;;;;5068512;28;20115;-68
2022/07/12 09:00:34;;;;;;;5.82;2.45;;;22.50;99.90;;;;;;5070972;28;20043;-68
2022/07/12 09:03:01;;;;;;;4.60;2.37;;;22.60;99.90;;;;;;5063101;28;20392;-67
2022/07/12 09:05:28;;;;;;;3.58;2.25;;;22.70;99.90;;;;;;5065734;28;20053;-67
2022/07/12 09:08:10;;;;;;;3.55;2.28;;;22.80;99.90;;;;;;5065073;28;20048;-68
2022/07/12 09:11:00;;;;;;;4.32;2.25;;;22.90;99.90;;;;;;5066156;28;20106;-67
2022/07/12 09:13:49;;;;;;;3.88;2.13;;;23.00;99.90;;;;;;5050891;28;20052;-67
2022/07/12 09:16:23;;;;;;;4.28;2.22;;;23.10;99.90;;;;;;5059177;28;20047;-68
2022/07/12 09:18:49;;;;;;;5.28;2.30;;;23.30;99.90;;;;;;5070157;28;20045;-67
2022/07/12 09:21:26;;;;;;;3.25;2.33;;;23.50;99.90;;;;;;5065298;28;20068;-67
2022/07/12 09:23:56;;;;;;;5.90;2.35;;;23.60;99.90;;;;;;5054895;28;20045;-67
2022/07/12 09:26:23;;;;;;;6.13;2.50;;;23.80;99.90;;;;;;5056116;28;20068;-67
2022/07/12 09:28:50;;;;;;;3.55;2.60;;;23.90;99.90;;;;;;5053517;28;20049;-67
2022/07/12 09:31:16;;;;;;;6.32;2.42;;;23.90;99.90;;;;;;5064727;28;20037;-67
2022/07/12 09:36:55;;;;;;;4.60;2.78;;;23.80;99.90;;;;;;5065554;28;20071;-68
2022/07/12 09:39:23;;;;;;;5.25;2.30;;;23.70;99.90;;;;;;5038454;28;20060;-68
2022/07/12 09:41:51;;;;;;;3.63;2.20;;;23.70;99.90;;;;;;5068395;28;20048;-67
2022/07/12 09:44:19;;;;;;;3.65;2.60;;;23.60;99.90;;;;;;5070904;28;20464;-68
2022/07/12 09:46:46;;;;;;;3.55;2.30;;;23.70;99.90;;;;;;5053137;28;20037;-66
2022/07/12 09:49:13;;;;;;;3.20;2.33;;;23.70;99.90;;;;;;5068885;28;20406;-68
2022/07/12 09:51:43;;;;;;;4.38;2.28;;;23.80;99.90;;;;;;5063778;28;20042;-68
2022/07/12 09:54:12;;;;;;;5.30;2.42;;;23.80;99.90;;;;;;5054345;28;20049;-67
2022/07/12 09:56:42;;;;;;;3.10;2.20;;;23.90;99.90;;;;;;5060853;28;20440;-67
2022/07/12 09:59:13;;;;;;;4.75;2.80;;;24.00;99.90;;;;;;5071373;28;20510;-67
2022/07/12 10:01:42;;;;;;;2.83;2.30;;;24.20;99.90;;;;;;5071164;28;20503;-68
2022/07/12 10:04:09;;;;;;;3.47;2.10;;;24.30;99.90;;;;;;5061105;28;20045;-68
2022/07/12 10:06:37;;;;;;;4.97;2.55;;;24.50;99.90;;;;;;5063723;28;20052;-67
2022/07/12 10:09:05;;;;;;;6.22;2.78;;;24.60;99.90;;;;;;5064570;28;20449;-66
2022/07/12 10:11:32;;;;;;;3.35;2.10;;;24.80;99.90;;;;;;5059223;28;20040;-67
2022/07/12 10:13:58;;;;;;;5.78;2.40;;;24.90;99.90;;;;;;5069957;28;20052;-67
2022/07/12 10:16:29;;;;;;;2.97;2.10;;;24.90;99.90;;;;;;5059298;28;20049;-67
2022/07/12 10:19:26;;;;;;;2.90;2.10;;;25.00;99.90;;;;;;5052186;28;20106;-67
2022/07/12 10:21:54;;;;;;;3.72;2.00;;;25.10;99.90;;;;;;5056400;28;20057;-66
2022/07/12 10:24:43;;;;;;;5.57;2.00;;;25.00;99.90;;;;;;5060767;28;20490;-67
2022/07/12 10:27:14;;;;;;;2.92;1.98;;;24.90;99.90;;;;;;5044389;28;20048;-67
2022/07/12 10:29:41;;;;;;;5.38;1.85;;;24.90;99.90;;;;;;5060292;28;20040;-68
2022/07/12 10:32:46;;;;;;;3.35;1.80;;;24.90;99.90;;;;;;5058584;28;20037;-66
2022/07/12 10:35:20;;;;;;;2.13;1.60;;;25.20;99.90;;;;;;5032278;28;20502;-67
2022/07/12 10:38:17;;;;;;;4.93;1.90;;;25.40;99.90;;;;;;5003868;28;20046;-67
2022/07/12 10:40:47;;;;;;;1.80;1.35;;;25.70;99.90;;;;;;5055384;28;20040;-68
2022/07/12 10:43:15;;;;;;;6.65;1.42;;;26.00;99.90;;;;;;5073460;28;20045;-67
2022/07/12 10:45:43;;;;;;;1.60;1.30;;;26.40;99.90;;;;;;5061256;28;20072;-67
2022/07/12 10:48:29;;;;;;;3.90;1.80;;;26.60;99.90;;;;;;5081620;28;20041;-67
2022/07/12 10:50:57;;;;;;;3.15;1.48;;;26.90;99.90;;;;;;5071283;28;20098;-67
2022/07/12 10:53:29;;;;;;;2.15;1.30;;;27.00;99.90;;;;;;5055045;28;20070;-68
2022/07/12 10:56:07;;;;;;;5.43;1.30;;;27.10;99.90;;;;;;5059339;28;20041;-68
2022/07/12 10:58:46;;;;;;;1.77;1.00;;;27.30;99.90;;;;;;5067736;28;20049;-67
2022/07/12 11:01:17;;;;;;;2.13;1.20;;;27.40;99.90;;;;;;5067737;28;20037;-68
2022/07/12 11:03:49;;;;;;;2.85;1.20;;;27.40;99.90;;;;;;5062983;28;20404;-68
2022/07/12 11:06:17;;;;;;;1.50;0.95;;;27.50;99.10;;;;;;5071596;28;20044;-68
2022/07/12 11:08:57;;;;;;;1.58;1.08;;;27.60;99.00;;;;;;5070245;28;20084;-68
2022/07/12 11:11:29;;;;;;;5.18;1.50;;;27.70;98.00;;;;;;5061797;28;20051;-68
2022/07/12 11:13:56;;;;;;;1.80;1.10;;;27.90;99.30;;;;;;5070091;28;20072;-68
2022/07/12 11:16:25;;;;;;;2.17;1.15;;;28.00;99.40;;;;;;5069472;28;20044;-67
2022/07/12 11:18:52;;;;;;;2.22;1.20;;;28.10;98.00;;;;;;5073037;28;20054;-68
2022/07/12 11:21:19;;;;;;;3.03;1.40;;;28.10;97.90;;;;;;5074254;28;20040;-68
2022/07/12 11:23:44;;;;;;;1.80;1.15;;;28.10;97.80;;;;;;5074432;28;20467;-67
2022/07/12 11:26:11;;;;;;;3.47;1.20;;;28.00;97.50;;;;;;5058168;28;20128;-67
2022/07/12 11:28:38;;;;;;;1.92;1.23;;;27.80;96.90;;;;;;5054376;28;20434;-68
2022/07/12 11:31:15;;;;;;;2.83;1.15;;;27.80;96.50;;;;;;5069379;28;20085;-67
2022/07/12 11:33:47;;;;;;;4.03;1.35;;;27.70;94.90;;;;;;5071459;28;20269;-68
2022/07/12 11:36:13;;;;;;;2.53;1.10;;;27.50;95.00;;;;;;5062276;28;20051;-67
2022/07/12 11:38:43;;;;;;;1.65;1.27;;;27.40;95.00;;;;;;5067807;28;20098;-67
2022/07/12 11:41:09;;;;;;;4.97;1.30;;;27.40;95.80;;;;;;5073067;28;20049;-68
2022/07/12 11:43:37;;;;;;;1.27;1.10;;;27.30;95.40;;;;;;5074067;28;20044;-66
2022/07/12 11:46:04;;;;;;;2.05;1.02;;;27.50;95.20;;;;;;5055543;28;20056;-68
2022/07/12 11:48:33;;;;;;;4.07;1.30;;;27.50;94.40;;;;;;5053398;28;20068;-67
2022/07/12 11:51:17;;;;;;;6.22;1.65;;;27.60;95.00;;;;;;5073085;28;20047;-68
2022/07/12 11:53:43;;;;;;;0.95;0.95;;;27.80;94.80;;;;;;5070301;28;20399;-67
2022/07/12 11:56:11;;;;;;;3.45;1.25;;;27.90;95.80;;;;;;5072267;28;20041;-67
2022/07/12 11:58:40;;;;;;;3.97;1.48;;;28.10;95.30;;;;;;5072261;28;20037;-67
2022/07/12 12:01:10;;;;;;;1.85;1.30;;;28.30;94.60;;;;;;5073079;28;20440;-67
2022/07/12 12:03:46;;;;;;;2.42;1.23;;;28.40;92.20;;;;;;5071549;28;20059;-68
2022/07/12 12:06:12;;;;;;;3.80;1.23;;;28.30;93.60;;;;;;5048595;28;20113;-68
2022/07/12 12:08:38;;;;;;;1.98;1.10;;;28.40;93.40;;;;;;5070830;28;20079;-68
2022/07/12 12:11:03;;;;;;;1.42;1.02;;;28.50;92.80;;;;;;5055950;28;20144;-67
2022/07/12 12:13:30;;;;;;;2.20;1.02;;;28.80;91.50;;;;;;5058483;28;20052;-67
2022/07/12 12:16:05;;;;;;;5.18;1.10;;;28.90;91.20;;;;;;5072888;28;20071;-67
2022/07/12 12:18:41;;;;;;;1.73;1.10;;;29.00;88.60;;;;;;5071996;28;20045;-67
2022/07/12 12:21:12;;;;;;;2.15;1.30;;;29.00;86.90;;;;;;5053695;28;20415;-69
2022/07/12 12:23:43;;;;;;;2.00;1.35;;;29.00;87.90;;;;;;5068985;28;20060;-68
2022/07/12 12:26:16;;;;;;;2.35;1.17;;;29.00;88.30;;;;;;5068457;28;20053;-68
2022/07/12 12:28:53;;;;;;;1.88;1.00;;;29.10;90.10;;;;;;5068990;28;20049;-67
2022/07/12 12:31:20;;;;;;;3.55;1.30;;;29.20;88.50;;;;;;5064384;28;20075;-68
2022/07/12 12:33:52;;;;;;;3.70;1.00;;;29.30;85.00;;;;;;5068409;28;20072;-68
2022/07/12 12:36:29;;;;;;;4.85;1.10;;;29.20;86.50;;;;;;5064828;28;20048;-68
2022/07/12 12:39:03;;;;;;;2.97;1.30;;;29.30;87.70;;;;;;5066630;28;20120;-68
2022/07/12 12:41:37;;;;;;;1.67;0.98;;;29.30;85.90;;;;;;5066826;28;20029;-68
2022/07/12 12:44:04;;;;;;;11.48;1.30;;;29.30;87.40;;;;;;5061483;28;20050;-67
2022/07/12 12:46:51;;;;;;;12.48;1.40;;;29.30;86.20;;;;;;5068612;28;20040;-68
2022/07/12 12:49:16;;;;;;;2.85;1.50;;;29.30;83.60;;;;;;5055305;28;20105;-69
2022/07/12 12:51:56;;;;;;;2.67;1.30;;;29.30;80.80;;;;;;5065731;28;20048;-67
2022/07/12 12:54:36;;;;;;;1.75;1.10;;;29.20;80.20;;;;;;5080848;28;20047;-68
2022/07/12 12:57:02;;;;;;;2.45;1.27;;;29.10;79.40;;;;;;5054375;28;20119;-68
2022/07/12 12:59:28;;;;;;;2.30;1.20;;;29.00;82.60;;;;;;5066637;28;20080;-66
2022/07/12 13:01:54;;;;;;;2.55;1.48;;;28.90;81.30;;;;;;5064837;28;20041;-69